Terminal Aerodrome Forecast
Issued by NWS

Home | Current Version | Previous Version | Text Only | Print | Product List | Glossary On
Versions: 1 2 3 4 5 6 7 8 9 10 11 12 13 14 15 16 17 18 19 20 21
000
FTUS43 KDLH 181700
TAFHIB
TAF
KHIB 181728Z 1818/1918 08005KT P6SM FEW100
     FM190600 12011KT 4SM -FZRASN OVC030
     FM190900 13012KT 3SM -FZRASN OVC010
      TEMPO 1911/1915 1/2SM -FZRASN FG OVC004
     FM191600 10015G25KT 3SM -RA OVC006=

USA.gov is the U.S. government's official web portal to all federal, state and local government web resources and services.